Meteo Giornale » Osservazioni meteo Italia » Pratica Di Mare

ore: 09:07 - Osservazioni Meteo Pratica Di Mare
Lat. 41° 39' N Lon. 12° 27' E Alt. 6 metri s.l.m.

foschia Europe/Rome

15 °C

Foschia

Temp. 24 Ore

14 °C

22 °C

Nord

1.8 Km/h

Dew point 15 °C

Umidità 100 %

Visibilità  5 Km

Il sole sorge alle ore 06:15

Il sole tramonta alle ore 20:01

Data e Ora Cielo e Fenomeni T °C DP °C Um. % Pres. hPa Vis. km Vento km/h
Oggi h: 09:07 foschia Foschia 15 15 100 1018 5 N 1.8
Oggi h: 08:55 foschia Foschia 15 15 100 1018 3 N 5.5
Oggi h: 07:55 nebbia Nebbia 15 15 100 1018 0.2 N/NE 9.3
Oggi h: 07:04 foschia Foschia 14 14 100 1018 1 N 5.5
Oggi h: 06:55 nebbia Nebbia 15 15 100 1018 0.8 N 5.5
Oggi h: 05:14 foschia Foschia Nebbia nelle Vicinanze 15 15 100 1018 4 N/NE 7.4
Oggi h: 04:55 sereno Sereno 15 14 93 1018 6 N/NE 7.4
Oggi h: 03:55 sereno Sereno 14 14 100 1018 7 N 5.5
Oggi h: 02:55 sereno Sereno 14 13 93 1018 10 N 7.4
Oggi h: 01:55 sereno Sereno 14 13 93 1018 10 N 5.5
Oggi h: 00:55 sereno Sereno 14 13 93 1018 10 N 5.5
Ieri h: 23:55 sereno Sereno 14 14 100 1018 10 N 5.5
Ieri h: 22:55 sereno Sereno 14 14 100 1018 10 N/NE 7.4
Ieri h: 21:55 sereno Sereno 15 15 100 1018 10 N 3.7
Ieri h: 20:55 sereno Sereno 17 16 93 1018 10 N 3.7
Ieri h: 19:55 sereno Sereno 19 16 82 1017 10 O/SO 7.4
Ieri h: 18:55 sereno Sereno 20 17 82 1018 10 O 11.1
Ieri h: 17:55 sereno Sereno 20 16 77 1017 10 O 13
Ieri h: 16:55 sereno Sereno 21 18 82 1017 10 O 13
Ieri h: 15:55 sereno Sereno 22 17 73 1018 10 O/SO 14.8
Ieri h: 14:55 sereno Sereno 21 18 82 1018 10 SO 13
Ieri h: 13:55 poco_nuvoloso Poco Nuvoloso 20 18 88 1018 10 SO 11.1
Ieri h: 12:55 poco_nuvoloso Poco Nuvoloso 20 18 88 1019 10 O/SO 9.3
Ieri h: 11:55 poco_nuvoloso Poco Nuvoloso 20 18 88 1019 10 SO 9.3
Ieri h: 10:55 nuvoloso Nuvoloso 20 18 88 1019 10 S/SO 13
Ieri h: 09:55 nuvoloso Nuvoloso 19 18 93 1018 6 S/SE 7.4